createdAt,value
2019-04-03T00:02:45.376Z,13.72
2019-04-03T00:05:36.228Z,13.68
2019-04-03T00:08:26.068Z,13.68
2019-04-03T00:10:59.002Z,13.42
2019-04-03T00:13:54.299Z,13.30
2019-04-03T00:16:25.531Z,13.18
2019-04-03T00:19:18.678Z,13.27
2019-04-03T00:24:50.634Z,13.21
2019-04-03T00:27:37.619Z,13.10
2019-04-03T00:30:21.861Z,13.07
2019-04-03T00:33:41.755Z,13.11
2019-04-03T00:36:23.882Z,13.22
2019-04-03T00:38:57.651Z,13.08
2019-04-03T00:41:30.736Z,13.14
2019-04-03T00:44:02.357Z,13.09
2019-04-03T00:46:33.324Z,13.10
2019-04-03T00:54:59.339Z,13.18
2019-04-03T00:58:07.630Z,13.15
2019-04-03T01:01:01.354Z,12.45
2019-04-03T01:03:51.920Z,12.92
2019-04-03T01:07:02.046Z,12.87
2019-04-03T01:09:45.219Z,12.77
2019-04-03T01:12:36.770Z,12.78
2019-04-03T01:15:26.790Z,12.81
2019-04-03T01:18:16.949Z,12.77
2019-04-03T01:21:07.341Z,12.84
2019-04-03T01:23:57.321Z,12.73
2019-04-03T01:26:40.679Z,12.57
2019-04-03T01:29:23.893Z,12.41
2019-04-03T01:32:05.543Z,12.24
2019-04-03T01:34:47.705Z,12.04
2019-04-03T01:37:37.728Z,11.69
2019-04-03T01:40:27.530Z,11.55
2019-04-03T01:43:18.265Z,11.36
2019-04-03T01:49:18.687Z,11.10
2019-04-03T01:52:10.002Z,10.93
2019-04-03T01:54:41.001Z,10.88
2019-04-03T01:57:32.207Z,10.78
2019-04-03T02:00:22.207Z,10.73
2019-04-03T02:02:53.326Z,10.75
2019-04-03T02:05:43.972Z,10.66
2019-04-03T02:08:35.701Z,10.66
2019-04-03T02:11:25.662Z,10.63
2019-04-03T02:14:16.004Z,9.94
2019-04-03T02:16:57.614Z,10.59
2019-04-03T02:19:28.366Z,10.55
2019-04-03T02:22:18.240Z,10.50
2019-04-03T02:25:08.302Z,10.38
2019-04-03T02:27:58.165Z,10.38
2019-04-03T02:30:47.818Z,10.45
2019-04-03T02:33:37.905Z,10.46
2019-04-03T02:36:27.974Z,10.52
2019-04-03T02:39:17.716Z,10.46
2019-04-03T02:42:09.880Z,10.55
2019-04-03T02:45:00.437Z,10.72
2019-04-03T02:47:33.543Z,10.65
2019-04-03T02:50:26.060Z,10.71
2019-04-03T02:53:16.122Z,10.16
2019-04-03T02:56:06.470Z,10.85
2019-04-03T02:58:57.548Z,11.04
2019-04-03T03:01:28.504Z,10.59
2019-04-03T03:04:21.810Z,11.05
2019-04-03T03:07:10.709Z,11.05
2019-04-03T03:09:45.684Z,11.09
2019-04-03T03:12:14.610Z,11.01
2019-04-03T03:15:04.937Z,10.96
2019-04-03T03:17:37.276Z,10.87
2019-04-03T03:20:09.079Z,10.83
2019-04-03T03:22:41.426Z,10.72
2019-04-03T03:25:12.858Z,10.73
2019-04-03T03:28:02.881Z,10.69
2019-04-03T03:31:14.241Z,10.67
2019-04-03T03:34:00.417Z,10.63
2019-04-03T03:36:49.221Z,10.67
2019-04-03T03:42:57.676Z,10.64
2019-04-03T03:45:31.704Z,10.47
2019-04-03T03:48:03.744Z,10.55
2019-04-03T03:50:38.375Z,10.36
2019-04-03T03:53:28.894Z,10.26
2019-04-03T03:56:39.027Z,10.25
2019-04-03T03:59:29.434Z,10.21
2019-04-03T04:02:19.313Z,10.01
2019-04-03T04:07:51.227Z,9.83
2019-04-03T04:10:25.204Z,9.68
2019-04-03T04:12:55.112Z,9.57
2019-04-03T04:15:44.987Z,9.47
2019-04-03T04:18:16.424Z,9.40
2019-04-03T04:21:09.390Z,9.40
2019-04-03T04:27:19.436Z,9.39
2019-04-03T04:30:11.985Z,9.38
2019-04-03T04:33:00.901Z,9.36
2019-04-03T04:35:52.425Z,9.36
2019-04-03T04:38:42.059Z,9.33
2019-04-03T04:41:32.617Z,9.37
2019-04-03T04:44:23.223Z,9.36
2019-04-03T04:53:36.454Z,9.32
2019-04-03T04:56:07.488Z,9.28
2019-04-03T04:58:57.563Z,9.29
2019-04-03T05:01:49.139Z,8.55
2019-04-03T05:10:51.018Z,9.19
2019-04-03T05:13:32.760Z,9.08
2019-04-03T05:16:20.951Z,9.02
2019-04-03T05:19:10.227Z,8.99
2019-04-03T05:21:54.012Z,8.93
2019-04-03T05:24:28.860Z,8.87
2019-04-03T05:27:03.400Z,8.91
2019-04-03T05:35:56.411Z,9.06
2019-04-03T05:42:10.051Z,9.10
2019-04-03T05:45:24.090Z,9.13
2019-04-03T05:48:12.611Z,9.13
2019-04-03T05:53:42.248Z,9.24
2019-04-03T06:02:29.827Z,9.37
2019-04-03T06:05:02.195Z,9.48
2019-04-03T06:08:03.835Z,9.43
2019-04-03T06:10:54.194Z,9.50
2019-04-03T06:13:36.672Z,9.52
2019-04-03T06:16:24.553Z,9.63
2019-04-03T06:19:19.532Z,9.63
2019-04-03T06:22:10.342Z,9.65
2019-04-03T06:25:03.434Z,9.72
2019-04-03T06:27:58.048Z,9.76
2019-04-03T06:34:07.374Z,9.82
2019-04-03T06:36:58.409Z,9.84
2019-04-03T06:39:48.545Z,9.91
2019-04-03T06:42:39.228Z,9.94
2019-04-03T06:45:45.093Z,9.93
2019-04-03T06:58:07.813Z,10.21
2019-04-03T07:01:30.020Z,10.28
2019-04-03T07:03:50.329Z,10.39
2019-04-03T07:06:40.665Z,10.43
2019-04-03T07:09:50.826Z,10.52
2019-04-03T07:12:24.129Z,10.69
2019-04-03T07:15:15.341Z,10.91
2019-04-03T07:18:06.551Z,11.01
2019-04-03T07:24:15.528Z,11.34
2019-04-03T07:27:00.723Z,11.49
2019-04-03T07:29:34.534Z,11.73
2019-04-03T07:32:15.905Z,11.76
2019-04-03T07:34:50.591Z,11.79
2019-04-03T07:37:23.385Z,12.06
2019-04-03T07:40:31.858Z,12.22
2019-04-03T07:43:20.567Z,12.53
2019-04-03T07:46:33.254Z,12.70
2019-04-03T07:49:31.937Z,12.86
2019-04-03T07:55:20.257Z,13.79
2019-04-03T07:58:33.465Z,14.45
2019-04-03T08:01:46.175Z,15.58
2019-04-03T08:04:38.857Z,16.16
2019-04-03T08:10:57.565Z,15.24
2019-04-03T08:13:47.509Z,14.89
2019-04-03T08:16:48.150Z,14.44
2019-04-03T08:22:39.113Z,13.78
2019-04-03T08:25:53.941Z,12.63
2019-04-03T08:29:11.015Z,13.42
2019-04-03T08:31:51.924Z,13.27
2019-04-03T08:41:04.839Z,12.79
2019-04-03T08:44:02.414Z,12.69
2019-04-03T08:47:17.587Z,12.59
2019-04-03T08:53:24.576Z,12.71
2019-04-03T08:56:38.824Z,12.60
2019-04-03T08:59:13.456Z,12.58
2019-04-03T09:02:07.054Z,12.68
2019-04-03T09:05:33.384Z,12.71
2019-04-03T09:12:14.117Z,12.79
2019-04-03T09:15:10.097Z,12.69
2019-04-03T09:18:00.955Z,12.49
2019-04-03T09:21:21.829Z,12.73
2019-04-03T09:24:18.797Z,12.84
2019-04-03T09:27:13.465Z,12.11
2019-04-03T09:36:13.642Z,12.79
2019-04-03T09:39:20.082Z,12.76
2019-04-03T09:41:52.394Z,12.92
2019-04-03T09:44:40.126Z,12.96
2019-04-03T09:51:22.351Z,13.47
2019-04-03T09:57:32.514Z,13.73
2019-04-03T10:03:31.522Z,14.21
2019-04-03T10:06:06.373Z,14.51
2019-04-03T10:08:38.107Z,14.35
2019-04-03T10:11:10.992Z,14.14
2019-04-03T10:13:46.420Z,14.17
2019-04-03T10:16:23.185Z,14.18
2019-04-03T10:19:16.030Z,13.97
2019-04-03T10:22:06.176Z,13.91
2019-04-03T10:25:00.628Z,13.90
2019-04-03T10:28:15.061Z,13.79
2019-04-03T10:31:25.973Z,13.64
2019-04-03T10:37:05.469Z,14.08
2019-04-03T10:49:31.543Z,15.32
2019-04-03T10:52:14.470Z,15.49
2019-04-03T10:57:39.511Z,15.96
2019-04-03T11:00:22.077Z,16.19
2019-04-03T11:02:54.627Z,16.40
2019-04-03T11:05:46.172Z,16.28
2019-04-03T11:08:36.011Z,16.09
2019-04-03T11:11:27.201Z,16.50
2019-04-03T11:14:17.972Z,16.88
2019-04-03T11:17:09.208Z,17.24
2019-04-03T11:20:00.235Z,17.14
2019-04-03T11:22:41.069Z,16.71
2019-04-03T11:25:22.680Z,16.37
2019-04-03T11:27:54.344Z,16.24
2019-04-03T11:33:37.833Z,16.49
2019-04-03T11:36:30.173Z,16.74
2019-04-03T11:39:38.339Z,16.63
2019-04-03T11:42:22.182Z,16.63
2019-04-03T11:44:43.212Z,16.97
2019-04-03T11:47:32.961Z,17.04
2019-04-03T11:50:24.732Z,17.09
2019-04-03T11:52:55.478Z,17.20
2019-04-03T11:55:26.734Z,17.47
2019-04-03T11:57:59.283Z,17.16
2019-04-03T12:03:32.634Z,16.67
2019-04-03T12:06:03.866Z,16.59
2019-04-03T12:08:54.101Z,16.47
2019-04-03T12:11:43.911Z,16.45
2019-04-03T12:14:36.096Z,16.60
2019-04-03T12:17:29.382Z,16.76
2019-04-03T12:20:00.426Z,17.11
2019-04-03T12:22:54.577Z,17.25
2019-04-03T12:25:44.811Z,17.22
2019-04-03T12:28:34.650Z,16.75
2019-04-03T12:31:43.155Z,16.66
2019-04-03T12:34:14.282Z,15.86
2019-04-03T12:36:56.118Z,14.85
2019-04-03T12:39:28.067Z,14.13
2019-04-03T12:42:18.784Z,13.86
2019-04-03T12:44:50.016Z,13.67
2019-04-03T12:47:42.853Z,13.17
2019-04-03T12:53:41.603Z,12.87
2019-04-03T12:59:47.680Z,12.82
2019-04-03T13:02:38.493Z,13.38
2019-04-03T13:05:28.618Z,14.08
2019-04-03T13:08:21.766Z,13.82
2019-04-03T13:10:55.976Z,13.92
2019-04-03T13:16:24.280Z,14.51
2019-04-03T13:19:16.025Z,14.23
2019-04-03T13:24:56.456Z,13.58
2019-04-03T13:27:50.667Z,13.60
2019-04-03T13:30:43.469Z,14.07
2019-04-03T13:33:39.318Z,14.52
2019-04-03T13:36:24.314Z,14.51
2019-04-03T13:41:41.656Z,15.02
2019-04-03T13:44:30.890Z,15.07
2019-04-03T13:47:20.805Z,15.28
2019-04-03T13:50:13.245Z,14.55
2019-04-03T13:55:40.890Z,14.25
2019-04-03T13:58:31.692Z,14.00
2019-04-03T14:01:06.955Z,13.12
2019-04-03T14:03:54.494Z,13.29
2019-04-03T14:06:45.178Z,13.60
2019-04-03T14:09:35.452Z,13.23
2019-04-03T14:12:29.968Z,13.14
2019-04-03T14:15:21.547Z,12.98
2019-04-03T14:17:56.873Z,12.70
2019-04-03T14:20:45.780Z,13.27
2019-04-03T14:23:17.485Z,13.24
2019-04-03T14:26:05.682Z,12.59
2019-04-03T14:28:35.303Z,13.06
2019-04-03T14:31:34.708Z,13.11
2019-04-03T14:34:19.077Z,12.85
2019-04-03T14:36:51.081Z,11.95
2019-04-03T14:39:41.841Z,11.55
2019-04-03T14:45:09.324Z,10.45
2019-04-03T14:47:59.596Z,11.55
2019-04-03T14:50:36.493Z,11.05
2019-04-03T14:53:27.924Z,11.10
2019-04-03T14:56:34.220Z,10.95
2019-04-03T14:59:29.558Z,11.38
2019-04-03T15:05:28.715Z,11.22
2019-04-03T15:08:20.270Z,10.99
2019-04-03T15:11:11.548Z,10.80
2019-04-03T15:14:03.117Z,10.43
2019-04-03T15:17:04.408Z,10.10
2019-04-03T15:19:57.231Z,9.91
2019-04-03T18:38:12.407Z,5.31
2019-04-03T18:41:04.025Z,5.30
2019-04-03T18:43:48.364Z,5.24
2019-04-03T18:46:36.310Z,5.27
2019-04-03T18:49:16.516Z,5.28
2019-04-03T18:51:59.834Z,5.31
2019-04-03T18:54:45.040Z,5.35
2019-04-03T19:00:20.590Z,5.36
2019-04-03T19:03:11.204Z,5.42
2019-04-03T19:06:04.064Z,5.41
2019-04-03T19:08:36.495Z,5.41
2019-04-03T19:11:27.820Z,5.47
2019-04-03T19:27:50.064Z,5.47
2019-04-03T19:30:43.141Z,5.46
2019-04-03T19:33:48.240Z,5.53
2019-04-03T19:36:44.833Z,5.41
2019-04-03T19:45:51.432Z,5.42
2019-04-03T19:48:22.052Z,5.52
2019-04-03T19:51:06.948Z,5.47
2019-04-03T19:53:41.124Z,5.46
2019-04-03T19:56:49.371Z,5.49
2019-04-03T19:59:29.814Z,5.40
2019-04-03T20:04:23.334Z,5.43
2019-04-03T20:07:15.888Z,5.39
2019-04-03T20:10:06.971Z,5.49
2019-04-03T20:12:40.305Z,5.17
2019-04-03T20:15:36.743Z,5.39
2019-04-03T20:18:30.411Z,5.41
2019-04-03T20:21:20.447Z,5.39
2019-04-03T20:24:12.846Z,5.42
2019-04-03T20:27:05.364Z,5.40
2019-04-03T20:35:55.124Z,5.36
2019-04-03T20:38:44.233Z,5.42
2019-04-03T20:41:34.804Z,5.37
2019-04-03T20:44:05.237Z,5.37
2019-04-03T20:46:36.314Z,5.34
2019-04-03T20:49:30.265Z,5.41
2019-04-03T20:52:12.252Z,5.33
2019-04-03T20:54:53.996Z,5.33
2019-04-03T20:57:36.097Z,5.22
2019-04-03T21:03:02.836Z,5.15
2019-04-03T21:05:44.222Z,5.16
2019-04-03T21:08:28.146Z,5.24
2019-04-03T21:11:09.490Z,5.18
2019-04-03T21:13:40.196Z,5.17
2019-04-03T21:16:33.323Z,5.21
2019-04-03T21:19:02.493Z,5.32
2019-04-03T21:21:32.560Z,5.34
2019-04-03T21:24:04.010Z,5.39
2019-04-03T21:26:37.678Z,5.43
2019-04-03T21:29:26.008Z,5.38
2019-04-03T21:32:15.191Z,5.35
2019-04-03T21:37:56.317Z,5.42
2019-04-03T21:40:47.480Z,5.42
2019-04-03T21:43:37.670Z,5.46
2019-04-03T21:46:29.679Z,5.50
2019-04-03T21:49:20.459Z,5.40
2019-04-03T21:51:51.837Z,5.33
2019-04-03T21:54:22.765Z,5.31
2019-04-03T21:56:53.891Z,5.25
2019-04-03T21:59:43.038Z,5.25
2019-04-03T22:02:35.494Z,5.31
2019-04-03T22:05:07.364Z,5.36
2019-04-03T22:07:58.882Z,5.32
2019-04-03T22:10:50.511Z,5.37
2019-04-03T22:13:39.808Z,5.35
2019-04-03T22:16:09.888Z,5.40
2019-04-03T22:18:59.017Z,5.36
2019-04-03T22:21:48.138Z,5.32
2019-04-03T22:24:37.813Z,5.42
2019-04-03T22:27:46.451Z,5.37
2019-04-03T22:30:17.403Z,5.47
2019-04-03T22:33:06.672Z,5.45
2019-04-03T22:35:36.812Z,5.23
2019-04-03T22:38:07.838Z,5.39
2019-04-03T22:40:57.472Z,5.36
2019-04-03T22:46:25.375Z,5.29
2019-04-03T22:48:56.308Z,5.29
2019-04-03T22:51:38.534Z,5.29
2019-04-03T22:54:20.540Z,5.21
2019-04-03T22:57:02.002Z,5.13
2019-04-03T22:59:32.619Z,5.03
2019-04-03T23:02:23.035Z,4.99
2019-04-03T23:05:12.372Z,5.01
2019-04-03T23:07:42.489Z,5.04
2019-04-03T23:10:31.589Z,5.10
2019-04-03T23:13:20.694Z,5.17
2019-04-03T23:15:51.573Z,5.15
2019-04-03T23:18:40.666Z,5.13
2019-04-03T23:21:30.364Z,5.17
2019-04-03T23:24:20.025Z,5.12
2019-04-03T23:27:28.053Z,5.03
2019-04-03T23:30:17.980Z,4.73
2019-04-03T23:33:26.592Z,5.00
2019-04-03T23:35:58.270Z,5.03
2019-04-03T23:38:47.459Z,5.06
2019-04-03T23:41:37.063Z,5.04
2019-04-03T23:44:11.632Z,5.00
2019-04-03T23:46:45.359Z,5.00
2019-04-03T23:49:34.802Z,4.91
2019-04-03T23:55:18.381Z,4.79
2019-04-03T23:58:27.344Z,4.78
